Time;durP1;ratioP1;P1;durP2;ratioP2;P2;SDS_P1;SDS_P2;PMS_P1;PMS_P2;Temp;Humidity;BMP_temperature;BMP_pressure;BME280_temperature;BME280_humidity;BME280_pressure;Samples;Min_cycle;Max_cycle;Signal;HPM_P1;HPM_P2
2021/08/26 00:05:51;;;;;;;7.13;4.57;;;9.50;99.90;8.70;96616.00;;;;5106530;28;20199;-71
2021/08/26 00:08:40;;;;;;;6.13;4.40;;;9.40;99.90;8.80;96614.00;;;;5106315;28;20222;-70
2021/08/26 00:11:30;;;;;;;8.23;4.93;;;9.30;99.90;9.00;96623.00;;;;5097797;28;20230;-70
2021/08/26 00:14:23;;;;;;;7.20;5.23;;;9.30;99.90;9.10;96617.00;;;;5106207;28;20681;-70
2021/08/26 00:17:12;;;;;;;9.53;5.30;;;9.30;99.90;9.10;96616.00;;;;5106570;28;20199;-71
2021/08/26 00:20:01;;;;;;;10.13;4.90;;;9.30;99.90;9.00;96622.00;;;;5106498;28;20228;-70
2021/08/26 00:22:50;;;;;;;8.60;4.90;;;9.40;99.90;8.70;96608.00;;;;5105315;28;20304;-70
2021/08/26 00:25:39;;;;;;;6.23;5.00;;;9.30;99.90;8.70;96598.00;;;;5106283;28;20198;-70
2021/08/26 00:28:28;;;;;;;6.43;4.30;;;9.20;99.90;8.90;96597.00;;;;5105762;28;20299;-71
2021/08/26 00:31:18;;;;;;;7.80;4.53;;;9.20;99.90;8.80;96599.00;;;;5105496;28;20230;-70
2021/08/26 00:34:07;;;;;;;7.17;4.50;;;9.20;99.90;8.70;96601.00;;;;5105435;28;20696;-70
2021/08/26 00:36:56;;;;;;;7.63;4.50;;;9.10;99.90;8.70;96596.00;;;;5104876;28;20206;-69
2021/08/26 00:39:45;;;;;;;8.80;4.63;;;9.10;99.90;8.50;96587.00;;;;5105765;28;20224;-70
2021/08/26 00:42:36;;;;;;;8.03;5.63;;;9.00;99.90;8.50;96581.00;;;;5109862;28;20223;-71
2021/08/26 00:45:25;;;;;;;7.77;4.80;;;9.00;99.90;8.50;96577.00;;;;5106127;28;20222;-71
2021/08/26 00:48:15;;;;;;;6.77;5.00;;;8.90;99.90;8.30;96576.00;;;;5104241;28;20271;-71
2021/08/26 00:51:04;;;;;;;7.67;5.03;;;8.90;99.90;8.10;96582.00;;;;5109300;28;20218;-70
2021/08/26 00:53:54;;;;;;;7.60;4.93;;;8.80;99.90;8.30;96568.00;;;;5108543;28;20351;-69
2021/08/26 00:56:43;;;;;;;8.17;5.50;;;8.70;99.90;8.40;96567.00;;;;5108505;28;20201;-70
2021/08/26 00:59:34;;;;;;;12.33;5.23;;;8.70;99.90;8.60;96571.00;;;;5107546;28;20697;-69
2021/08/26 01:02:33;;;;;;;7.33;4.77;;;8.80;99.90;8.30;96560.00;;;;5107863;28;20708;-70
2021/08/26 01:05:30;;;;;;;8.20;5.43;;;8.70;99.90;8.40;96556.00;;;;5109150;28;20206;-69
2021/08/26 01:08:36;;;;;;;9.80;5.17;;;8.70;99.90;8.30;96556.00;;;;5110148;28;20731;-69
2021/08/26 01:11:25;;;;;;;7.97;5.03;;;8.70;99.90;8.40;96565.00;;;;5108632;28;20237;-70
2021/08/26 01:14:16;;;;;;;7.60;5.00;;;8.70;99.90;8.40;96574.00;;;;5108627;28;20600;-71
2021/08/26 01:17:05;;;;;;;7.27;5.30;;;8.60;99.90;8.50;96563.00;;;;5109264;28;20684;-70
2021/08/26 01:19:57;;;;;;;10.57;4.60;;;8.70;99.90;8.30;96565.00;;;;5108989;28;20608;-69
2021/08/26 01:22:48;;;;;;;6.33;4.73;;;8.70;99.90;8.00;96562.00;;;;5108060;28;20228;-69
2021/08/26 01:25:43;;;;;;;9.20;4.63;;;8.60;99.90;7.80;96558.00;;;;5103300;28;20288;-69
2021/08/26 01:28:36;;;;;;;7.37;4.57;;;8.50;99.90;7.70;96559.00;;;;5107288;28;20218;-70
2021/08/26 01:31:25;;;;;;;6.73;4.93;;;8.40;99.90;7.80;96558.00;;;;5108983;28;20697;-70
2021/08/26 01:34:15;;;;;;;9.53;5.57;;;8.30;99.90;8.00;96555.00;;;;5108213;28;20430;-69
2021/08/26 01:37:04;;;;;;;8.13;5.33;;;8.30;99.90;8.10;96555.00;;;;5108939;28;20443;-70
2021/08/26 01:39:55;;;;;;;7.63;5.00;;;8.30;99.90;8.20;96560.00;;;;5108333;28;20205;-69
2021/08/26 01:42:46;;;;;;;8.97;5.47;;;8.40;99.90;8.20;96550.00;;;;5108735;28;20314;-69
2021/08/26 01:45:34;;;;;;;8.97;5.80;;;8.40;99.90;8.10;96549.00;;;;5108285;28;20197;-69
2021/08/26 01:48:23;;;;;;;9.70;5.87;;;8.40;99.90;8.10;96552.00;;;;5088062;28;20585;-70
2021/08/26 01:51:12;;;;;;;7.43;4.57;;;8.40;99.90;8.10;96553.00;;;;5107626;28;20222;-69
2021/08/26 01:54:02;;;;;;;9.40;5.30;;;8.40;99.90;7.90;96550.00;;;;5107113;28;20209;-69
2021/08/26 01:56:51;;;;;;;6.80;4.90;;;8.40;99.90;7.80;96544.00;;;;5087932;28;20881;-70
2021/08/26 01:59:41;;;;;;;7.40;4.93;;;8.30;99.90;7.70;96540.00;;;;5108208;28;20259;-70
2021/08/26 02:02:30;;;;;;;5.93;4.20;;;8.20;99.90;7.70;96543.00;;;;5085142;28;20728;-70
2021/08/26 02:05:19;;;;;;;10.13;5.17;;;8.20;99.90;7.90;96532.00;;;;5101232;28;20278;-69
2021/08/26 02:08:08;;;;;;;8.33;5.10;;;8.20;99.90;7.80;96540.00;;;;5107951;28;20712;-71
2021/08/26 02:10:57;;;;;;;7.07;5.70;;;8.20;99.90;7.80;96529.00;;;;5108482;28;20237;-69
2021/08/26 02:13:46;;;;;;;12.13;5.50;;;8.10;99.90;7.80;96537.00;;;;5107900;28;20194;-69
2021/08/26 02:16:37;;;;;;;8.27;5.20;;;8.20;99.90;7.60;96517.00;;;;5099445;28;20206;-69
2021/08/26 02:19:26;;;;;;;7.73;5.23;;;8.10;99.90;7.50;96509.00;;;;5108672;28;20673;-71
2021/08/26 02:22:15;;;;;;;7.83;5.23;;;8.00;99.90;7.50;96503.00;;;;5108017;28;20214;-70
2021/08/26 02:25:06;;;;;;;9.90;5.73;;;8.00;99.90;7.70;96519.00;;;;5110501;27;20195;-70
2021/08/26 02:27:55;;;;;;;6.77;4.67;;;8.00;99.90;7.80;96515.00;;;;5107362;28;20676;-69
2021/08/26 02:30:44;;;;;;;6.93;4.73;;;8.00;99.90;7.80;96512.00;;;;5107998;28;20197;-70
2021/08/26 02:33:34;;;;;;;8.13;4.90;;;8.00;99.90;7.80;96512.00;;;;5107739;28;20677;-70
2021/08/26 02:36:24;;;;;;;8.23;5.13;;;8.00;99.90;8.00;96507.00;;;;5107248;28;20211;-70
2021/08/26 02:39:13;;;;;;;10.83;5.13;;;8.10;99.90;7.90;96510.00;;;;5107885;28;20199;-70
2021/08/26 02:42:02;;;;;;;8.40;5.70;;;8.10;99.90;8.00;96502.00;;;;5108668;28;20586;-70
2021/08/26 02:44:50;;;;;;;7.47;4.67;;;8.20;99.90;7.80;96505.00;;;;5108661;28;20227;-70
2021/08/26 02:47:39;;;;;;;7.50;4.57;;;8.10;99.90;7.60;96504.00;;;;5106286;28;20205;-69
2021/08/26 02:50:30;;;;;;;6.83;5.07;;;8.10;99.90;7.70;96500.00;;;;5107797;28;20279;-70
2021/08/26 02:53:19;;;;;;;8.33;6.43;;;8.00;99.90;7.80;96501.00;;;;5105838;28;20206;-69
2021/08/26 02:56:08;;;;;;;6.00;4.83;;;8.00;99.90;7.60;96496.00;;;;5107270;28;20620;-70
2021/08/26 02:58:56;;;;;;;5.33;4.37;;;8.00;99.90;7.50;96492.00;;;;5106043;28;20198;-69
2021/08/26 03:01:45;;;;;;;7.10;5.33;;;7.90;99.90;7.60;96497.00;;;;5106607;28;20230;-69
2021/08/26 03:04:34;;;;;;;9.23;5.23;;;7.90;99.90;7.60;96490.00;;;;5105028;28;20217;-69
2021/08/26 03:07:25;;;;;;;5.70;4.63;;;7.90;99.90;7.40;96489.00;;;;5106459;28;20202;-70
2021/08/26 03:10:13;;;;;;;8.40;6.37;;;7.90;99.90;7.50;96480.00;;;;5087710;28;20717;-69
2021/08/26 03:13:04;;;;;;;10.03;6.33;;;7.90;99.90;7.60;96474.00;;;;5085384;28;20214;-69
2021/08/26 03:15:52;;;;;;;6.60;4.90;;;8.00;99.90;7.70;96484.00;;;;5086494;28;20206;-69
2021/08/26 03:18:42;;;;;;;7.13;5.20;;;7.50;99.90;7.70;96485.00;;;;5086778;28;20195;-70
2021/08/26 03:21:31;;;;;;;6.73;5.10;;;7.90;99.90;8.00;96487.00;;;;5086772;28;20257;-70
2021/08/26 03:24:21;;;;;;;8.03;5.53;;;8.00;99.90;7.70;96488.00;;;;5086323;28;20195;-70
2021/08/26 03:27:10;;;;;;;7.00;4.60;;;8.00;99.90;7.60;96484.00;;;;5085880;28;20199;-70
2021/08/26 03:29:59;;;;;;;7.70;5.00;;;8.00;99.90;7.70;96480.00;;;;5086656;28;20755;-70
2021/08/26 03:32:48;;;;;;;6.90;5.70;;;8.00;99.90;7.90;96475.00;;;;5086145;28;20599;-70
2021/08/26 03:35:37;;;;;;;7.67;5.27;;;8.00;99.90;8.20;96473.00;;;;5086848;28;20203;-69
2021/08/26 03:38:26;;;;;;;7.83;5.20;;;8.10;99.90;7.90;96483.00;;;;5086942;28;20662;-70
2021/08/26 03:41:16;;;;;;;6.90;4.27;;;8.10;99.90;7.70;96465.00;;;;5086684;28;20215;-70
2021/08/26 03:44:06;;;;;;;8.70;5.40;;;8.10;99.90;7.70;96475.00;;;;5085769;28;20635;-70
2021/08/26 03:46:55;;;;;;;8.27;5.67;;;8.00;99.90;7.70;96468.00;;;;5085263;28;20328;-69
2021/08/26 03:49:43;;;;;;;9.33;5.00;;;8.00;99.90;7.60;96463.00;;;;5086384;28;20219;-70
2021/08/26 03:52:32;;;;;;;8.93;4.90;;;8.00;99.90;7.60;96464.00;;;;5076325;28;20227;-69
2021/08/26 03:55:21;;;;;;;9.57;5.63;;;7.90;99.90;7.40;96457.00;;;;5098441;28;20201;-70
2021/08/26 03:58:12;;;;;;;9.07;4.80;;;7.90;99.90;7.30;96449.00;;;;5105984;28;20198;-71
2021/08/26 04:01:04;;;;;;;6.87;4.97;;;7.80;99.90;7.30;96447.00;;;;5104622;28;20749;-70
2021/08/26 04:03:53;;;;;;;8.90;6.00;;;7.80;99.90;7.40;96452.00;;;;5101202;28;20306;-70
2021/08/26 04:06:42;;;;;;;6.87;5.07;;;7.80;99.90;7.70;96446.00;;;;5106441;28;20186;-70
2021/08/26 04:09:31;;;;;;;7.10;5.63;;;7.80;99.90;7.70;96439.00;;;;5106755;28;20214;-70
2021/08/26 04:12:20;;;;;;;7.87;5.23;;;7.80;99.90;7.40;96440.00;;;;5105987;28;20226;-69
2021/08/26 04:15:11;;;;;;;10.30;6.60;;;7.80;99.90;7.40;96438.00;;;;5105785;28;20206;-70
2021/08/26 04:17:59;;;;;;;7.67;4.63;;;7.80;99.90;7.30;96435.00;;;;5106181;28;20206;-70
2021/08/26 04:20:48;;;;;;;9.17;6.27;;;7.80;99.90;7.40;96441.00;;;;5105634;28;20204;-70
2021/08/26 04:23:37;;;;;;;6.27;5.03;;;7.80;99.90;7.50;96447.00;;;;5106554;28;20213;-71
2021/08/26 04:26:26;;;;;;;9.10;5.37;;;7.80;99.90;7.60;96452.00;;;;5097754;28;20593;-70
2021/08/26 04:29:15;;;;;;;11.67;5.60;;;7.90;99.90;7.70;96446.00;;;;5106257;28;20194;-70
2021/08/26 04:32:07;;;;;;;6.90;5.30;;;7.90;99.90;7.90;96431.00;;;;5106559;28;20225;-71
2021/08/26 04:34:56;;;;;;;9.70;6.40;;;8.00;99.90;8.00;96431.00;;;;5107098;28;20746;-70
2021/08/26 04:37:45;;;;;;;8.33;5.63;;;8.10;99.90;8.00;96426.00;;;;5105969;28;20344;-70
2021/08/26 04:40:34;;;;;;;8.60;4.83;;;8.20;99.90;8.10;96432.00;;;;5103406;28;20225;-70
2021/08/26 04:43:23;;;;;;;7.03;5.47;;;8.20;99.90;8.30;96431.00;;;;5105987;28;20690;-70
2021/08/26 04:46:12;;;;;;;9.50;6.23;;;8.30;99.90;8.50;96427.00;;;;5103537;28;20251;-70
2021/08/26 04:49:02;;;;;;;7.57;5.17;;;8.50;99.90;8.30;96434.00;;;;5106785;28;20191;-70
2021/08/26 04:51:51;;;;;;;10.13;5.23;;;8.60;99.90;8.50;96411.00;;;;5100029;28;20226;-70
2021/08/26 04:54:40;;;;;;;10.32;6.00;;;8.60;99.90;8.40;96413.00;;;;5094910;28;20741;-70
2021/08/26 04:57:29;;;;;;;7.17;4.83;;;8.70;99.90;8.30;96400.00;;;;5084272;28;20199;-71
2021/08/26 05:00:18;;;;;;;8.65;6.60;;;8.70;99.90;8.20;96400.00;;;;5085913;28;20394;-72
2021/08/26 05:03:07;;;;;;;8.90;5.57;;;8.60;99.90;8.40;96396.00;;;;5084616;28;20199;-71
2021/08/26 05:05:58;;;;;;;8.30;5.97;;;8.60;99.90;8.60;96389.00;;;;5086146;28;20266;-71
2021/08/26 05:08:47;;;;;;;7.27;5.07;;;8.70;99.90;8.80;96374.00;;;;5090349;28;20250;-71
2021/08/26 05:11:36;;;;;;;8.60;5.87;;;8.80;99.90;8.90;96382.00;;;;5104995;28;20276;-70
2021/08/26 05:14:25;;;;;;;6.93;4.93;;;8.90;99.90;9.00;96384.00;;;;5104036;28;20227;-70
2021/08/26 05:17:14;;;;;;;9.07;5.60;;;9.10;99.90;9.00;96388.00;;;;5104803;28;20875;-71
2021/08/26 05:20:03;;;;;;;8.30;5.47;;;9.20;99.90;9.10;96383.00;;;;5105245;28;20195;-70
2021/08/26 05:22:53;;;;;;;7.43;5.50;;;9.30;99.90;8.80;96382.00;;;;5105154;28;20216;-70
2021/08/26 05:25:42;;;;;;;9.13;5.17;;;9.20;99.90;8.90;96376.00;;;;5105195;28;20198;-71
2021/08/26 05:28:31;;;;;;;11.97;5.87;;;9.20;99.90;9.10;96384.00;;;;5109825;28;20699;-70
2021/08/26 05:31:20;;;;;;;11.57;6.30;;;9.30;99.90;9.20;96382.00;;;;5108554;28;20227;-69
2021/08/26 05:34:09;;;;;;;11.33;5.93;;;9.40;99.90;9.40;96384.00;;;;5108549;28;20241;-71
2021/08/26 05:36:58;;;;;;;9.00;5.73;;;9.50;99.90;9.50;96371.00;;;;5108011;28;20634;-71
2021/08/26 05:39:48;;;;;;;7.57;5.60;;;9.60;99.90;9.70;96376.00;;;;5109941;28;20240;-71
2021/08/26 05:42:37;;;;;;;8.93;5.90;;;9.70;99.90;10.00;96371.00;;;;5108766;28;20302;-71
2021/08/26 05:45:26;;;;;;;9.57;5.70;;;9.90;99.90;9.90;96379.00;;;;5108940;28;20209;-70
2021/08/26 05:48:15;;;;;;;13.87;6.10;;;10.00;99.90;10.20;96374.00;;;;5108729;28;20203;-70
2021/08/26 05:51:04;;;;;;;7.50;5.80;;;10.10;99.90;10.20;96368.00;;;;5108160;28;20713;-71
2021/08/26 05:53:53;;;;;;;16.50;6.33;;;10.30;99.90;10.40;96361.00;;;;5107948;28;20275;-70
2021/08/26 05:56:44;;;;;;;10.57;6.83;;;10.40;99.90;10.80;96367.00;;;;5108974;28;20232;-71
2021/08/26 05:59:33;;;;;;;9.40;6.90;;;10.60;99.90;10.30;96358.00;;;;5107889;28;20201;-71
2021/08/26 06:02:22;;;;;;;14.60;6.33;;;10.60;99.90;10.70;96353.00;;;;5108791;28;20217;-70
2021/08/26 06:05:11;;;;;;;9.07;6.27;;;10.70;99.90;11.10;96348.00;;;;5108275;28;20635;-71
2021/08/26 06:08:00;;;;;;;13.23;8.17;;;10.90;99.90;11.30;96359.00;;;;5087307;28;20203;-71
2021/08/26 06:10:49;;;;;;;11.27;6.40;;;11.10;99.90;11.30;96360.00;;;;5106527;28;20226;-72
2021/08/26 06:13:40;;;;;;;11.87;7.87;;;11.30;99.90;11.60;96364.00;;;;5108732;28;20222;-72
2021/08/26 06:16:28;;;;;;;12.97;6.63;;;11.40;99.90;11.70;96362.00;;;;5107629;28;20207;-71
2021/08/26 06:19:17;;;;;;;14.10;7.47;;;11.60;99.90;12.20;96369.00;;;;5108138;28;20202;-72
2021/08/26 06:22:06;;;;;;;13.77;8.90;;;11.80;99.90;12.50;96369.00;;;;5108136;28;20647;-72
2021/08/26 06:24:55;;;;;;;16.47;7.97;;;12.00;99.90;12.70;96377.00;;;;5106564;28;20194;-72
2021/08/26 06:27:44;;;;;;;18.57;9.43;;;12.20;99.90;12.90;96365.00;;;;5107433;28;20198;-72
2021/08/26 06:30:34;;;;;;;12.57;7.47;;;12.40;99.90;13.10;96378.00;;;;5107652;28;20653;-72
2021/08/26 06:33:23;;;;;;;15.73;8.13;;;12.50;99.90;13.20;96369.00;;;;5107261;28;20347;-72
2021/08/26 06:36:12;;;;;;;12.87;7.50;;;12.80;99.90;13.20;96362.00;;;;5107255;28;20190;-72
2021/08/26 06:39:01;;;;;;;13.03;7.53;;;12.90;99.90;13.40;96365.00;;;;5106371;28;20195;-72
2021/08/26 06:41:50;;;;;;;13.83;8.33;;;13.10;99.90;13.40;96361.00;;;;5107604;28;20591;-72
2021/08/26 06:44:40;;;;;;;14.03;7.07;;;13.10;99.90;13.40;96368.00;;;;5108019;28;20198;-73
2021/08/26 06:47:30;;;;;;;10.47;6.97;;;13.20;99.90;13.20;96356.00;;;;5107391;28;20239;-70
2021/08/26 06:50:19;;;;;;;11.13;6.40;;;13.30;99.90;13.30;96364.00;;;;5107401;28;20628;-72
2021/08/26 06:53:08;;;;;;;11.63;6.67;;;13.30;99.90;13.40;96369.00;;;;5083428;28;20597;-72
2021/08/26 06:55:57;;;;;;;13.33;7.20;;;13.30;99.90;13.40;96349.00;;;;5086768;28;20210;-72
2021/08/26 06:58:46;;;;;;;12.10;8.43;;;13.40;99.90;13.70;96356.00;;;;5087532;28;20199;-72
2021/08/26 07:01:59;;;;;;;10.43;7.40;;;13.50;99.90;14.10;96363.00;;;;5090977;28;20665;-72
2021/08/26 07:04:50;;;;;;;12.00;7.60;;;13.70;99.90;14.30;96348.00;;;;5107832;28;20202;-73
2021/08/26 07:07:39;;;;;;;12.77;7.33;;;13.90;99.90;14.50;96354.00;;;;5083558;28;20222;-72
2021/08/26 07:10:28;;;;;;;11.97;6.50;;;14.10;99.90;14.50;96341.00;;;;5082659;28;20195;-72
2021/08/26 07:13:17;;;;;;;11.13;7.30;;;14.20;99.90;15.10;96339.00;;;;5085453;28;20578;-72
2021/08/26 07:16:06;;;;;;;10.13;7.13;;;14.40;99.90;15.00;96347.00;;;;5087087;28;20195;-72
2021/08/26 07:18:57;;;;;;;13.00;7.90;;;14.60;99.90;15.00;96344.00;;;;5085924;28;20567;-72
2021/08/26 07:21:48;;;;;;;11.50;7.43;;;14.70;99.90;15.50;96326.00;;;;5084259;28;20218;-72
2021/08/26 07:24:36;;;;;;;14.93;8.03;;;14.90;99.90;16.10;96332.00;;;;5099698;28;20198;-72
2021/08/26 07:27:25;;;;;;;9.93;7.10;;;15.10;99.90;16.30;96336.00;;;;5105690;28;20582;-72
2021/08/26 07:30:15;;;;;;;10.13;6.37;;;15.50;99.90;15.90;96345.00;;;;5105553;28;20588;-73
2021/08/26 07:33:04;;;;;;;11.83;7.80;;;15.70;99.90;16.30;96333.00;;;;5107001;28;20244;-73
2021/08/26 07:35:54;;;;;;;10.73;6.07;;;15.80;99.90;16.60;96338.00;;;;5107114;28;20673;-73
2021/08/26 07:38:44;;;;;;;10.10;6.77;;;15.90;99.90;16.30;96339.00;;;;5105971;28;20194;-73
2021/08/26 07:41:33;;;;;;;10.70;7.10;;;16.00;99.90;16.50;96338.00;;;;5105968;28;20221;-73
2021/08/26 07:44:22;;;;;;;13.33;7.03;;;16.10;99.90;16.50;96346.00;;;;5105661;28;20195;-73
2021/08/26 07:47:11;;;;;;;11.60;6.37;;;16.10;99.90;16.70;96332.00;;;;5105379;28;20221;-73
2021/08/26 07:50:00;;;;;;;8.87;5.80;;;16.20;99.90;16.90;96333.00;;;;5105580;28;20195;-73
2021/08/26 07:52:49;;;;;;;13.70;6.57;;;16.40;99.90;17.10;96332.00;;;;5105739;28;20845;-73
2021/08/26 07:55:40;;;;;;;8.63;5.00;;;16.50;99.90;17.00;96326.00;;;;5104994;28;20214;-73
2021/08/26 07:58:53;;;;;;;9.60;6.13;;;16.60;99.90;16.90;96336.00;;;;5105769;28;20199;-74
2021/08/26 08:01:42;;;;;;;12.80;6.50;;;16.70;99.90;16.90;96337.00;;;;5105396;28;20226;-73
2021/08/26 08:04:31;;;;;;;9.53;6.10;;;16.70;99.90;17.00;96340.00;;;;5105673;28;20200;-74
2021/08/26 08:07:20;;;;;;;8.67;5.97;;;16.70;99.90;17.10;96340.00;;;;5105570;28;20597;-74
2021/08/26 08:10:09;;;;;;;8.40;5.80;;;16.70;99.90;17.20;96351.00;;;;5104253;28;20194;-74
2021/08/26 08:13:00;;;;;;;8.30;5.83;;;16.80;99.90;17.80;96337.00;;;;5079907;28;20223;-74
2021/08/26 08:15:49;;;;;;;8.60;5.43;;;16.90;99.90;17.80;96335.00;;;;5083969;28;20203;-74
2021/08/26 08:18:38;;;;;;;9.03;6.20;;;17.10;99.90;18.00;96353.00;;;;5085204;28;20317;-74
2021/08/26 08:21:32;;;;;;;7.27;5.47;;;17.30;99.90;17.80;96352.00;;;;5084309;28;20222;-74
2021/08/26 08:24:21;;;;;;;10.23;5.60;;;17.40;99.90;17.60;96348.00;;;;5084371;28;20202;-74
2021/08/26 08:27:09;;;;;;;6.47;4.90;;;17.40;99.90;17.70;96342.00;;;;5083114;28;20210;-73
2021/08/26 08:30:00;;;;;;;10.43;6.87;;;17.30;99.90;17.80;96349.00;;;;5088466;28;20206;-73
2021/08/26 08:33:13;;;;;;;13.23;5.40;;;17.40;99.90;17.60;96340.00;;;;5081694;28;20264;-74
2021/08/26 08:36:05;;;;;;;9.60;6.67;;;17.40;99.90;17.50;96354.00;;;;5083534;28;20226;-74
2021/08/26 08:38:54;;;;;;;8.07;5.40;;;17.40;99.90;17.50;96341.00;;;;5084513;28;20281;-73
2021/08/26 08:41:45;;;;;;;10.07;5.07;;;17.30;99.90;17.50;96334.00;;;;5077868;28;20215;-73
2021/08/26 08:44:36;;;;;;;9.50;5.90;;;17.20;99.90;17.60;96328.00;;;;5083304;28;20198;-73
2021/08/26 08:47:30;;;;;;;5.67;4.50;;;17.20;99.90;17.60;96329.00;;;;5065070;28;20222;-73
2021/08/26 08:50:23;;;;;;;5.97;4.77;;;17.30;99.90;17.60;96324.00;;;;5077454;28;20203;-73
2021/08/26 08:53:13;;;;;;;9.93;5.90;;;17.30;99.90;17.40;96322.00;;;;5089877;28;20299;-72
2021/08/26 08:56:08;;;;;;;6.93;4.67;;;17.40;99.90;17.80;96324.00;;;;5086029;28;20670;-72
2021/08/26 08:59:00;;;;;;;8.53;4.20;;;17.40;99.90;18.10;96339.00;;;;5084690;28;20226;-72
2021/08/26 09:01:52;;;;;;;8.13;5.90;;;17.50;99.90;18.20;96333.00;;;;5085049;28;20215;-73
2021/08/26 09:04:59;;;;;;;7.10;5.10;;;17.60;99.90;18.20;96327.00;;;;5089300;28;20199;-73
2021/08/26 09:07:48;;;;;;;7.20;5.23;;;17.70;99.90;18.10;96330.00;;;;5085354;28;20199;-72
2021/08/26 09:10:37;;;;;;;12.63;5.43;;;17.80;99.90;18.10;96337.00;;;;5108341;28;20227;-72
2021/08/26 09:13:32;;;;;;;7.70;5.03;;;17.80;99.90;17.80;96333.00;;;;5108358;28;20244;-72
2021/08/26 09:16:37;;;;;;;6.13;4.97;;;17.70;99.90;17.60;96335.00;;;;5108554;28;20195;-72
2021/08/26 09:19:31;;;;;;;8.07;4.50;;;17.60;99.90;17.40;96319.00;;;;5107897;28;20577;-72
2021/08/26 09:22:24;;;;;;;11.13;5.33;;;17.50;99.90;17.10;96317.00;;;;5108312;28;20512;-69
2021/08/26 09:25:37;;;;;;;6.37;5.00;;;17.30;99.90;17.00;96323.00;;;;5108947;28;20240;-72
2021/08/26 09:28:31;;;;;;;9.93;5.10;;;17.20;99.90;17.20;96318.00;;;;5108398;28;20576;-72
2021/08/26 09:31:22;;;;;;;7.10;5.40;;;17.10;99.90;17.10;96304.00;;;;5108157;28;20235;-72
2021/08/26 09:34:14;;;;;;;9.87;5.83;;;17.00;99.90;17.20;96307.00;;;;5106489;28;20194;-72
2021/08/26 09:37:04;;;;;;;11.17;5.93;;;17.00;99.90;17.30;96308.00;;;;5090850;28;20690;-72
2021/08/26 09:40:07;;;;;;;9.60;5.53;;;17.00;99.90;17.30;96313.00;;;;5091791;28;20195;-73
2021/08/26 09:43:01;;;;;;;6.93;5.43;;;17.10;99.90;17.20;96320.00;;;;5066989;28;20223;-73
2021/08/26 09:45:50;;;;;;;8.63;5.43;;;17.10;99.90;17.30;96311.00;;;;5076202;28;20213;-72
2021/08/26 09:48:41;;;;;;;9.73;6.90;;;17.00;99.90;17.30;96298.00;;;;5086704;28;20199;-72
2021/08/26 09:51:30;;;;;;;10.03;6.40;;;17.00;99.90;17.50;96302.00;;;;5087768;28;20223;-73
2021/08/26 09:54:44;;;;;;;8.17;5.60;;;17.10;99.90;17.70;96289.00;;;;5086854;28;20188;-72
2021/08/26 09:57:37;;;;;;;8.33;5.23;;;17.20;99.90;17.90;96292.00;;;;5086565;28;20203;-73
2021/08/26 10:00:30;;;;;;;6.43;4.97;;;17.30;99.90;17.90;96286.00;;;;5085909;28;20208;-73
2021/08/26 10:03:31;;;;;;;9.10;5.80;;;17.40;99.90;17.80;96280.00;;;;5081626;28;20219;-72
2021/08/26 10:06:20;;;;;;;7.80;5.70;;;17.50;99.90;17.80;96284.00;;;;5085839;28;20368;-73
2021/08/26 10:09:09;;;;;;;10.43;6.50;;;17.50;99.90;18.00;96284.00;;;;5094761;28;20567;-72
2021/08/26 10:11:58;;;;;;;8.37;5.47;;;17.50;99.90;18.30;96276.00;;;;5106872;28;20230;-72
2021/08/26 10:14:53;;;;;;;8.73;5.10;;;17.60;99.90;18.50;96274.00;;;;5107569;28;20568;-72
2021/08/26 10:17:42;;;;;;;11.70;5.67;;;17.80;99.90;18.60;96269.00;;;;5085493;28;20210;-72
2021/08/26 10:20:31;;;;;;;8.20;6.00;;;18.00;99.90;18.60;96272.00;;;;5106938;28;20201;-73
2021/08/26 10:23:46;;;;;;;9.77;5.43;;;18.10;99.90;18.60;96275.00;;;;5078984;28;20670;-71
2021/08/26 10:26:35;;;;;;;8.13;5.30;;;18.20;99.90;18.70;96268.00;;;;5099482;28;20196;-72
2021/08/26 10:29:25;;;;;;;8.23;5.93;;;18.30;99.90;18.50;96279.00;;;;5086625;28;20199;-72
2021/08/26 10:32:23;;;;;;;8.77;5.87;;;18.30;99.90;18.30;96272.00;;;;5090573;28;20211;-73
2021/08/26 10:35:15;;;;;;;7.53;5.40;;;18.20;99.90;18.20;96268.00;;;;5108201;28;20589;-73
2021/08/26 10:38:20;;;;;;;9.20;5.47;;;18.10;99.90;18.00;96276.00;;;;5106713;28;20204;-73
2021/08/26 10:41:29;;;;;;;8.73;5.43;;;18.00;99.90;17.70;96268.00;;;;5098280;28;20219;-73
2021/08/26 10:44:59;;;;;;;7.87;4.63;;;17.80;99.90;17.80;96272.00;;;;5085754;28;20199;-72
2021/08/26 10:48:22;;;;;;;8.03;4.87;;;17.70;99.90;17.70;96264.00;;;;5100432;28;20207;-72
2021/08/26 10:51:15;;;;;;;8.00;5.57;;;17.70;99.90;18.00;96254.00;;;;5105260;28;20210;-72
2021/08/26 10:54:26;;;;;;;9.87;5.67;;;17.70;99.90;18.40;96260.00;;;;5087360;28;20689;-72
2021/08/26 10:57:30;;;;;;;7.77;5.47;;;17.90;99.90;18.90;96255.00;;;;5086174;28;20582;-73
2021/08/26 11:00:42;;;;;;;8.23;5.27;;;18.10;99.90;19.20;96265.00;;;;5086266;28;20207;-73
2021/08/26 11:03:57;;;;;;;8.20;6.20;;;18.30;99.90;19.30;96252.00;;;;5084281;28;20214;-73
2021/08/26 11:06:48;;;;;;;8.83;5.83;;;18.60;99.90;19.50;96257.00;;;;5083244;28;20203;-73
2021/08/26 11:09:40;;;;;;;9.73;5.17;;;18.80;99.90;19.60;96255.00;;;;5099203;28;20202;-72
2021/08/26 11:12:29;;;;;;;8.23;5.23;;;18.90;99.90;19.00;96267.00;;;;5104873;28;20233;-72
2021/08/26 11:15:26;;;;;;;7.63;4.60;;;19.00;99.90;19.20;96266.00;;;;5107108;28;20198;-70
2021/08/26 11:18:28;;;;;;;7.03;4.53;;;18.90;99.90;18.90;96273.00;;;;5091581;28;20195;-72
2021/08/26 11:22:01;;;;;;;9.77;5.37;;;18.80;99.90;18.80;96263.00;;;;5085769;28;20217;-73
2021/08/26 11:24:58;;;;;;;8.85;6.07;;;18.70;99.90;18.80;96276.00;;;;5084737;28;20716;-73
2021/08/26 11:27:47;;;;;;;8.07;5.13;;;18.70;99.90;18.50;96272.00;;;;5080809;28;20195;-72
2021/08/26 11:30:36;;;;;;;6.40;4.67;;;18.50;99.90;18.50;96274.00;;;;5088913;28;20211;-72
2021/08/26 11:33:27;;;;;;;7.60;5.50;;;18.40;99.90;18.50;96269.00;;;;5085132;28;20225;-72
2021/08/26 11:36:19;;;;;;;10.03;6.33;;;18.40;99.90;18.60;96275.00;;;;5083488;28;20300;-72
2021/08/26 11:39:12;;;;;;;8.97;5.10;;;18.30;99.90;18.60;96268.00;;;;5081336;28;20199;-72
2021/08/26 11:42:01;;;;;;;16.73;7.33;;;18.30;99.90;18.70;96267.00;;;;5085770;28;20225;-71
2021/08/26 11:45:22;;;;;;;14.23;7.47;;;18.30;99.90;18.90;96261.00;;;;5085867;28;20560;-72
2021/08/26 11:48:11;;;;;;;11.63;6.20;;;18.40;99.90;19.20;96253.00;;;;5092137;28;20227;-72
2021/08/26 11:51:02;;;;;;;9.33;6.40;;;18.50;99.90;19.30;96253.00;;;;5099042;28;20618;-72
2021/08/26 11:53:52;;;;;;;13.27;5.97;;;18.70;99.90;19.60;96261.00;;;;5095758;28;20218;-73
2021/08/26 11:56:52;;;;;;;9.67;5.97;;;18.90;99.90;19.80;96257.00;;;;5099315;28;20545;-73
2021/08/26 11:59:43;;;;;;;6.33;4.87;;;19.10;99.90;19.90;96254.00;;;;5105384;28;20202;-73
2021/08/26 12:02:33;;;;;;;6.37;5.20;;;19.20;99.90;19.80;96249.00;;;;5104648;28;20233;-73
2021/08/26 12:05:24;;;;;;;6.43;4.77;;;19.30;99.90;19.60;96247.00;;;;5106666;28;20198;-73
2021/08/26 12:08:13;;;;;;;6.90;4.97;;;19.30;99.90;20.10;96244.00;;;;5104137;28;20194;-74
2021/08/26 12:11:05;;;;;;;8.20;5.30;;;19.50;99.90;20.50;96235.00;;;;5104603;28;20222;-73
2021/08/26 12:14:08;;;;;;;9.18;6.35;;;19.60;99.90;20.60;96231.00;;;;5103783;28;20392;-73
2021/08/26 12:16:57;;;;;;;9.13;6.22;;;19.80;99.90;20.80;96233.00;;;;5092300;28;20460;-73
2021/08/26 12:19:49;;;;;;;19.73;7.83;;;20.00;99.90;21.20;96238.00;;;;5083157;28;20243;-73
2021/08/26 12:22:43;;;;;;;9.77;5.37;;;20.20;99.90;21.50;96193.00;;;;5085680;28;20690;-73
2021/08/26 12:25:35;;;;;;;7.37;5.27;;;20.50;99.90;21.90;96209.00;;;;5085442;28;20647;-73
2021/08/26 12:28:33;;;;;;;7.73;5.00;;;20.90;99.90;21.80;96220.00;;;;5083672;28;20203;-74
2021/08/26 12:31:22;;;;;;;7.87;4.80;;;21.10;99.90;21.30;96219.00;;;;5084900;28;20219;-73
2021/08/26 12:34:13;;;;;;;7.40;4.57;;;21.00;99.90;21.00;96228.00;;;;5085213;28;20226;-73
2021/08/26 12:37:04;;;;;;;10.93;6.53;;;20.80;99.90;20.00;96229.00;;;;5087690;28;20203;-73
2021/08/26 12:40:01;;;;;;;7.20;4.63;;;20.60;99.90;19.60;96227.00;;;;5090013;28;20203;-73
2021/08/26 12:43:01;;;;;;;11.40;5.27;;;20.30;99.90;19.20;96242.00;;;;5069158;28;20230;-73
2021/08/26 12:46:05;;;;;;;10.37;5.30;;;19.90;99.90;18.80;96239.00;;;;5076503;28;20199;-73
2021/08/26 12:49:08;;;;;;;9.07;5.47;;;19.50;99.90;18.90;96246.00;;;;5086241;28;20198;-73
2021/08/26 12:51:59;;;;;;;11.67;4.67;;;19.20;99.90;18.80;96239.00;;;;5088040;28;20271;-73
2021/08/26 12:54:58;;;;;;;6.23;5.27;;;19.00;99.90;18.70;96228.00;;;;5088495;28;20226;-73